Time;durP1;ratioP1;P1;durP2;ratioP2;P2;SDS_P1;SDS_P2;PMS_P1;PMS_P2;Temp;Humidity;BMP_temperature;BMP_pressure;BME280_temperature;BME280_humidity;BME280_pressure;Samples;Min_cycle;Max_cycle;Signal;HPM_P1;HPM_P2
2022/09/09 00:03:25;;;;;;;3.47;3.13;;;21.70;99.90;;;;;;10216338;28;20210;-80
2022/09/09 00:08:49;;;;;;;2.92;2.72;;;21.70;99.90;;;;;;10250443;28;20238;-80
2022/09/09 00:13:56;;;;;;;4.13;3.25;;;21.60;99.90;;;;;;10214060;29;20246;-80
2022/09/09 00:19:09;;;;;;;5.38;3.40;;;21.70;99.90;;;;;;10248323;28;20337;-80
2022/09/09 00:24:25;;;;;;;3.75;2.80;;;21.70;99.90;;;;;;10231596;29;20238;-80
2022/09/09 00:30:08;;;;;;;4.03;3.63;;;21.70;99.90;;;;;;10249489;29;20241;-80
2022/09/09 00:35:36;;;;;;;3.28;2.97;;;21.70;99.90;;;;;;10218271;29;20241;-80
2022/09/09 00:41:04;;;;;;;4.20;3.05;;;21.70;99.90;;;;;;10231664;29;20313;-80
2022/09/09 00:46:46;;;;;;;4.15;3.50;;;21.70;99.90;;;;;;10243930;28;20296;-80
2022/09/09 00:51:56;;;;;;;4.35;3.33;;;21.70;99.90;;;;;;10210587;29;20194;-80
2022/09/09 00:57:23;;;;;;;2.95;2.72;;;21.70;99.90;;;;;;10229949;29;20258;-80
2022/09/09 01:02:34;;;;;;;3.67;3.30;;;21.70;99.90;;;;;;10230840;29;20259;-80
2022/09/09 01:07:36;;;;;;;3.67;3.38;;;21.70;99.90;;;;;;10231304;28;20269;-80
2022/09/09 01:12:41;;;;;;;3.38;3.08;;;21.60;99.90;;;;;;10247143;28;20297;-80
2022/09/09 01:17:57;;;;;;;3.95;3.58;;;21.60;99.90;;;;;;10230939;29;20321;-80
2022/09/09 01:23:38;;;;;;;4.55;3.13;;;21.60;99.90;;;;;;10230827;29;20253;-80
2022/09/09 01:29:13;;;;;;;3.38;3.08;;;21.60;99.90;;;;;;10230628;28;20299;-80
2022/09/09 01:34:17;;;;;;;3.35;3.05;;;21.60;99.90;;;;;;10229299;28;20273;-80
2022/09/09 01:39:20;;;;;;;3.67;3.13;;;21.60;99.90;;;;;;10214208;29;20301;-80
2022/09/09 01:44:31;;;;;;;3.42;3.05;;;21.60;99.90;;;;;;10230576;29;20234;-80
2022/09/09 01:49:35;;;;;;;4.90;3.53;;;21.60;99.90;;;;;;10231077;28;20249;-80
2022/09/09 01:54:46;;;;;;;4.43;3.90;;;21.60;99.90;;;;;;10230070;29;20238;-80
2022/09/09 01:59:58;;;;;;;3.30;3.00;;;21.50;99.90;;;;;;10246546;28;20462;-80
2022/09/09 02:05:39;;;;;;;4.78;2.97;;;21.50;99.90;;;;;;10214133;29;20257;-80
2022/09/09 02:11:12;;;;;;;3.33;3.03;;;21.50;99.90;;;;;;10206782;29;20211;-80
2022/09/09 02:16:47;;;;;;;3.72;3.38;;;21.50;99.90;;;;;;10217770;29;20320;-80
2022/09/09 02:21:53;;;;;;;3.75;3.08;;;21.50;99.90;;;;;;10230150;28;20604;-81
2022/09/09 02:26:57;;;;;;;4.28;3.17;;;21.50;99.90;;;;;;10235659;28;20237;-80
2022/09/09 02:32:05;;;;;;;3.08;2.80;;;21.40;99.90;;;;;;10236547;29;20258;-80
2022/09/09 02:37:14;;;;;;;3.22;2.92;;;21.50;99.90;;;;;;10236684;29;20320;-80
2022/09/09 02:42:21;;;;;;;3.33;3.00;;;21.40;99.90;;;;;;10237080;29;20230;-80
2022/09/09 02:47:47;;;;;;;3.22;2.92;;;21.40;99.90;;;;;;10235468;29;20214;-80
2022/09/09 02:53:07;;;;;;;3.28;2.97;;;21.40;99.90;;;;;;10218682;29;20293;-80
2022/09/09 02:58:16;;;;;;;3.55;3.25;;;21.40;99.90;;;;;;10235973;28;20304;-80
2022/09/09 03:03:27;;;;;;;3.25;2.97;;;21.30;99.90;;;;;;10235101;28;20699;-80
2022/09/09 03:08:31;;;;;;;3.33;3.03;;;21.30;99.90;;;;;;10235132;28;20280;-80
2022/09/09 03:13:35;;;;;;;3.42;3.17;;;21.30;99.90;;;;;;10211831;29;20296;-80
2022/09/09 03:18:37;;;;;;;3.22;2.92;;;21.30;99.90;;;;;;10234842;29;20298;-80
2022/09/09 03:23:41;;;;;;;3.15;2.83;;;21.00;99.90;;;;;;10252373;29;20234;-80
2022/09/09 03:28:44;;;;;;;3.30;3.08;;;20.80;99.90;;;;;;10234169;28;20312;-80
2022/09/09 03:33:50;;;;;;;4.50;4.10;;;20.70;99.90;;;;;;10234827;28;20202;-80
2022/09/09 03:38:55;;;;;;;4.95;4.45;;;20.70;99.90;;;;;;10234904;29;20261;-80
2022/09/09 03:44:00;;;;;;;3.25;2.95;;;21.00;99.90;;;;;;10230800;29;20250;-80
2022/09/09 03:49:07;;;;;;;4.00;3.47;;;21.10;99.90;;;;;;10235151;28;20269;-80
2022/09/09 03:54:10;;;;;;;4.45;3.25;;;21.20;99.90;;;;;;10234904;29;20273;-80
2022/09/09 03:59:14;;;;;;;3.33;3.03;;;21.10;99.90;;;;;;10221297;29;20254;-80
2022/09/09 04:04:19;;;;;;;3.60;3.30;;;21.20;99.90;;;;;;10230758;29;20548;-80
2022/09/09 04:09:23;;;;;;;3.10;2.78;;;21.20;99.90;;;;;;10228844;28;20249;-79
2022/09/09 04:14:28;;;;;;;7.32;6.45;;;21.20;99.90;;;;;;10231037;28;20242;-80
2022/09/09 04:19:33;;;;;;;8.50;7.00;;;21.00;99.90;;;;;;10225954;29;20281;-81
2022/09/09 04:24:36;;;;;;;3.65;3.35;;;20.70;99.90;;;;;;10231389;29;20214;-80
2022/09/09 04:29:39;;;;;;;4.43;4.03;;;21.00;99.90;;;;;;10230416;29;20273;-80
2022/09/09 04:34:44;;;;;;;4.22;3.83;;;21.10;99.90;;;;;;10221279;28;20699;-80
2022/09/09 04:39:47;;;;;;;5.80;4.47;;;21.00;99.90;;;;;;10230032;29;20249;-80
2022/09/09 04:44:52;;;;;;;4.85;4.30;;;21.00;99.90;;;;;;10229855;29;20304;-80
2022/09/09 04:49:58;;;;;;;5.90;5.35;;;20.90;99.90;;;;;;10227306;29;20323;-80
2022/09/09 04:55:02;;;;;;;16.10;12.90;;;20.80;99.90;;;;;;10229234;29;20238;-79
2022/09/09 05:00:05;;;;;;;14.57;12.27;;;20.70;99.90;;;;;;10248136;28;20253;-80
2022/09/09 05:05:12;;;;;;;10.32;9.30;;;20.60;99.90;;;;;;10230373;29;20238;-80
2022/09/09 05:10:17;;;;;;;10.80;9.80;;;20.80;99.90;;;;;;10230647;28;20301;-79
2022/09/09 05:15:21;;;;;;;11.75;10.15;;;21.00;99.90;;;;;;10231222;29;20219;-80
2022/09/09 05:20:24;;;;;;;15.20;13.38;;;20.90;99.90;;;;;;10230467;28;20265;-80
2022/09/09 05:25:27;;;;;;;15.88;12.00;;;19.90;99.90;;;;;;10229798;29;20289;-80
2022/09/09 05:30:30;;;;;;;9.95;8.88;;;20.30;99.90;;;;;;10230854;28;20207;-82
2022/09/09 05:35:37;;;;;;;9.75;8.57;;;20.50;99.90;;;;;;10228679;28;20246;-80
2022/09/09 05:40:48;;;;;;;8.52;7.75;;;20.70;99.90;;;;;;10230314;29;20323;-80
2022/09/09 05:46:01;;;;;;;8.70;7.80;;;20.60;99.90;;;;;;10230949;29;20210;-79
2022/09/09 05:51:09;;;;;;;8.45;7.63;;;20.90;99.90;;;;;;10230735;29;20222;-81
2022/09/09 05:56:24;;;;;;;21.73;16.38;;;21.10;99.90;;;;;;10241834;28;20678;-81
2022/09/09 06:01:30;;;;;;;14.63;9.40;;;18.00;99.90;;;;;;10224622;29;20315;-80
2022/09/09 06:06:36;;;;;;;10.95;9.25;;;20.20;99.90;;;;;;10253060;29;20680;-80
2022/09/09 06:11:45;;;;;;;16.35;10.57;;;20.70;99.90;;;;;;10253194;29;20238;-80
2022/09/09 06:16:49;;;;;;;8.38;7.50;;;20.80;99.90;;;;;;10252562;29;20269;-80
2022/09/09 06:21:56;;;;;;;32.63;22.13;;;20.90;99.90;;;;;;10238801;29;20255;-79
2022/09/09 06:27:00;;;;;;;33.37;22.93;;;17.00;99.90;;;;;;10215113;29;20316;-79
2022/09/09 06:32:08;;;;;;;39.57;24.57;;;16.10;99.90;;;;;;10224189;29;20218;-79
2022/09/09 06:37:11;;;;;;;37.57;26.87;;;15.70;99.90;;;;;;10227660;29;20330;-79
2022/09/09 06:42:19;;;;;;;24.73;19.07;;;15.90;99.90;;;;;;10242349;28;20238;-80
2022/09/09 06:47:25;;;;;;;24.05;17.52;;;19.00;99.90;;;;;;10255249;28;20242;-80
2022/09/09 06:52:29;;;;;;;18.15;14.27;;;19.90;99.90;;;;;;10236321;28;20214;-80
2022/09/09 06:57:32;;;;;;;22.98;17.15;;;20.40;99.90;;;;;;10235844;29;20340;-80
2022/09/09 07:02:42;;;;;;;17.00;14.38;;;20.10;99.90;;;;;;10235197;29;20210;-80
2022/09/09 07:07:46;;;;;;;19.10;15.05;;;20.80;99.90;;;;;;10248804;29;20230;-80
2022/09/09 07:12:53;;;;;;;15.77;13.63;;;20.90;99.90;;;;;;10217297;29;20281;-80
2022/09/09 07:18:01;;;;;;;16.35;13.55;;;21.00;99.90;;;;;;10231590;29;20653;-80
2022/09/09 07:23:04;;;;;;;15.80;13.02;;;21.00;99.90;;;;;;10231911;28;20238;-80
2022/09/09 07:28:08;;;;;;;15.88;13.55;;;21.30;99.90;;;;;;10186638;29;20289;-80
2022/09/09 07:33:11;;;;;;;14.68;13.18;;;21.40;99.90;;;;;;10198436;28;20242;-79
2022/09/09 07:38:15;;;;;;;17.15;14.30;;;21.30;99.90;;;;;;10248256;29;20261;-80
2022/09/09 07:43:18;;;;;;;13.80;12.40;;;21.00;99.90;;;;;;10245637;29;20638;-80
2022/09/09 07:48:21;;;;;;;13.95;12.15;;;21.30;99.90;;;;;;10232995;29;20817;-80
2022/09/09 07:53:23;;;;;;;13.88;12.30;;;21.30;99.90;;;;;;10218033;28;20276;-80
2022/09/09 07:58:26;;;;;;;14.73;12.88;;;21.40;99.90;;;;;;10233682;29;20269;-80
2022/09/09 08:03:29;;;;;;;14.23;12.10;;;21.40;99.90;;;;;;10233811;28;20265;-80
2022/09/09 08:08:31;;;;;;;14.95;13.10;;;21.50;99.90;;;;;;10233345;29;20238;-80
2022/09/09 08:13:36;;;;;;;15.73;12.18;;;21.40;99.90;;;;;;10232843;28;20215;-80
2022/09/09 08:18:39;;;;;;;12.93;11.63;;;21.40;99.90;;;;;;10232869;29;20261;-80
2022/09/09 08:23:45;;;;;;;12.82;11.15;;;21.40;99.90;;;;;;10248849;28;20728;-80
2022/09/09 08:28:51;;;;;;;12.63;11.43;;;21.40;99.90;;;;;;10231734;28;20214;-80
2022/09/09 08:33:56;;;;;;;12.27;10.98;;;21.20;99.90;;;;;;10231853;29;20285;-80
2022/09/09 08:38:59;;;;;;;16.48;11.18;;;21.50;99.90;;;;;;10231881;28;20254;-80
2022/09/09 08:44:08;;;;;;;12.18;11.02;;;21.50;99.90;;;;;;10231741;28;20770;-80
2022/09/09 08:49:32;;;;;;;11.90;10.68;;;21.50;99.90;;;;;;10231525;28;20262;-80
2022/09/09 08:54:36;;;;;;;11.68;10.43;;;21.60;99.90;;;;;;10231549;28;20292;-80
2022/09/09 08:59:56;;;;;;;11.27;10.05;;;21.20;99.90;;;;;;10230594;28;20666;-80
2022/09/09 09:05:13;;;;;;;11.68;9.68;;;21.40;99.90;;;;;;10231465;28;20202;-80
2022/09/09 09:10:38;;;;;;;11.63;9.98;;;21.60;99.90;;;;;;10230646;29;20282;-80
2022/09/09 09:15:56;;;;;;;11.63;10.52;;;21.40;99.90;;;;;;10231383;28;20288;-80
2022/09/09 09:21:07;;;;;;;12.02;10.38;;;21.50;99.90;;;;;;10247879;28;20313;-80
2022/09/09 09:26:13;;;;;;;11.55;10.30;;;21.40;99.90;;;;;;10230550;29;20229;-80
2022/09/09 09:31:19;;;;;;;9.10;8.30;;;21.40;99.90;;;;;;10214596;29;20640;-80
2022/09/09 09:36:37;;;;;;;10.35;9.25;;;21.50;99.90;;;;;;10229705;29;20202;-80
2022/09/09 09:41:43;;;;;;;10.95;8.82;;;21.80;99.90;;;;;;10230489;28;20253;-80
2022/09/09 09:46:47;;;;;;;9.10;8.27;;;21.90;99.90;;;;;;10229793;29;20205;-80
2022/09/09 09:51:52;;;;;;;7.28;6.55;;;21.50;99.90;;;;;;10229441;29;20230;-80
2022/09/09 09:56:56;;;;;;;10.18;9.18;;;21.50;99.90;;;;;;10230180;29;20210;-80
2022/09/09 10:02:12;;;;;;;9.90;8.98;;;21.50;99.90;;;;;;10246808;28;20249;-80
2022/09/09 10:07:20;;;;;;;8.43;7.65;;;21.70;99.90;;;;;;10229899;29;20610;-80
2022/09/09 10:12:43;;;;;;;7.85;7.13;;;22.10;99.90;;;;;;10230655;28;20762;-81
2022/09/09 10:18:12;;;;;;;9.68;8.77;;;21.80;99.90;;;;;;10246578;29;20265;-80
2022/09/09 10:23:44;;;;;;;10.88;9.52;;;21.90;99.90;;;;;;10229189;29;20206;-79
2022/09/09 10:28:52;;;;;;;9.60;7.80;;;22.00;99.90;;;;;;10247195;29;20371;-80
2022/09/09 10:34:36;;;;;;;9.55;8.55;;;22.00;99.90;;;;;;10246565;28;20206;-80
2022/09/09 10:39:42;;;;;;;9.25;8.40;;;21.90;99.90;;;;;;10247121;28;20277;-80
2022/09/09 10:44:54;;;;;;;6.50;4.72;;;22.20;99.90;;;;;;10216028;28;20873;-80
2022/09/09 10:50:19;;;;;;;4.38;3.97;;;22.50;99.90;;;;;;10236135;29;20210;-80
2022/09/09 10:55:28;;;;;;;3.90;3.60;;;;;;;;;;10253120;29;20230;-80
2022/09/09 11:00:39;;;;;;;7.32;6.70;;;22.50;99.90;;;;;;10252861;29;20556;-79
2022/09/09 11:05:45;;;;;;;5.63;5.10;;;22.80;99.90;;;;;;10252772;29;20687;-80
2022/09/09 11:11:03;;;;;;;4.95;4.25;;;22.70;99.90;;;;;;10252952;28;20249;-80
2022/09/09 11:16:28;;;;;;;7.63;5.22;;;22.90;99.90;;;;;;10252286;28;20577;-80
2022/09/09 11:21:36;;;;;;;2.63;2.42;;;23.00;99.90;;;;;;10234476;29;20308;-80
2022/09/09 11:26:45;;;;;;;4.55;4.18;;;22.60;99.90;;;;;;10251543;29;20289;-80
2022/09/09 11:32:17;;;;;;;5.97;5.07;;;22.60;99.90;;;;;;10252039;28;20198;-80
2022/09/09 11:37:47;;;;;;;6.75;6.15;;;22.90;99.90;;;;;;10233881;29;20329;-80
2022/09/09 11:43:12;;;;;;;4.38;2.20;;;23.30;99.90;;;;;;10251701;29;20206;-80
2022/09/09 11:48:29;;;;;;;6.25;5.63;;;23.30;99.90;;;;;;10250545;28;20242;-80
2022/09/09 11:53:33;;;;;;;6.25;5.65;;;23.40;99.90;;;;;;10250786;29;20233;-80
2022/09/09 11:58:43;;;;;;;4.05;2.05;;;23.60;99.90;;;;;;10233704;29;20316;-80
2022/09/09 12:03:50;;;;;;;11.43;2.25;;;23.50;99.90;;;;;;10251469;29;20238;-80
2022/09/09 12:09:23;;;;;;;7.20;5.55;;;23.40;99.90;;;;;;10233105;28;20265;-80
2022/09/09 12:14:43;;;;;;;6.90;2.00;;;23.60;99.90;;;;;;10245213;28;20304;-80
2022/09/09 12:19:45;;;;;;;1.80;1.23;;;23.40;99.90;;;;;;10249907;28;20262;-80
2022/09/09 12:25:29;;;;;;;3.28;1.48;;;23.60;99.90;;;;;;10232714;29;20238;-80
2022/09/09 12:30:40;;;;;;;7.30;6.60;;;23.50;99.90;;;;;;10249337;29;20249;-80
2022/09/09 12:35:48;;;;;;;4.03;2.83;;;23.30;99.90;;;;;;10250064;29;20250;-80
2022/09/09 12:40:56;;;;;;;3.97;3.58;;;23.60;99.90;;;;;;10249063;29;20283;-80
2022/09/09 12:46:08;;;;;;;2.28;2.05;;;23.20;99.90;;;;;;10248932;29;20230;-80
2022/09/09 12:51:38;;;;;;;8.00;4.28;;;23.40;99.90;;;;;;10228599;29;20983;-80
2022/09/09 12:56:45;;;;;;;26.40;18.00;;;23.20;99.90;;;;;;10221230;29;20583;-80
2022/09/09 13:01:56;;;;;;;9.85;7.90;;;24.10;99.90;;;;;;9884066;28;9999614;-80
2022/09/09 13:07:09;;;;;;;16.65;14.25;;;24.30;99.90;;;;;;10245032;28;20261;-80
2022/09/09 13:12:19;;;;;;;5.20;4.65;;;24.50;99.90;;;;;;10226318;29;20234;-80
2022/09/09 13:17:25;;;;;;;48.63;42.75;;;24.40;99.90;;;;;;10228856;28;20341;-80
2022/09/09 13:22:35;;;;;;;52.10;44.83;;;24.60;99.90;;;;;;10241896;29;20706;-79
2022/09/09 13:27:41;;;;;;;50.25;44.17;;;25.00;99.90;;;;;;10219278;29;20269;-78
2022/09/09 13:32:43;;;;;;;4.65;3.25;;;25.10;99.90;;;;;;10241753;28;20695;-78
2022/09/09 13:37:46;;;;;;;36.45;30.50;;;24.90;99.90;;;;;;10243280;29;20238;-79
2022/09/09 13:42:53;;;;;;;5.20;2.80;;;25.20;99.90;;;;;;10239525;29;20722;-79
2022/09/09 13:47:56;;;;;;;3.85;2.38;;;24.40;99.90;;;;;;10232891;29;20229;-79
2022/09/09 13:52:59;;;;;;;4.53;1.52;;;23.80;99.90;;;;;;10240487;28;20253;-78
2022/09/09 13:58:03;;;;;;;4.18;2.22;;;;;;;;;;10244065;29;20226;-78
2022/09/09 14:03:06;;;;;;;5.68;2.55;;;23.00;99.90;;;;;;10242602;29;20669;-79
2022/09/09 14:08:22;;;;;;;26.45;22.70;;;23.30;99.90;;;;;;10229588;29;20679;-79
2022/09/09 14:13:25;;;;;;;28.83;25.73;;;24.30;99.90;;;;;;10228568;29;20241;-79
2022/09/09 14:18:27;;;;;;;22.63;19.67;;;24.70;99.90;;;;;;10243830;28;20258;-79
2022/09/09 14:23:30;;;;;;;26.63;20.80;;;24.50;99.90;;;;;;10236202;28;20269;-85
2022/09/09 14:28:33;;;;;;;15.63;13.98;;;24.80;99.90;;;;;;10235298;29;20608;-79
2022/09/09 14:33:55;;;;;;;2.85;1.70;;;25.10;99.90;;;;;;10253388;28;20337;-80
2022/09/09 14:38:58;;;;;;;5.40;3.08;;;25.00;99.90;;;;;;10252078;29;20249;-79
2022/09/09 14:44:00;;;;;;;17.30;14.05;;;24.80;99.90;;;;;;10251391;28;20358;-83
2022/09/09 14:49:04;;;;;;;25.23;21.38;;;24.90;99.90;;;;;;10235458;29;20284;-78
2022/09/09 14:54:06;;;;;;;9.95;8.55;;;25.60;99.90;;;;;;10236265;29;20241;-78
2022/09/09 14:59:09;;;;;;;18.10;16.17;;;25.40;99.90;;;;;;10251645;29;20308;-78
2022/09/09 15:04:13;;;;;;;22.88;20.45;;;25.00;99.90;;;;;;10235116;29;20234;-78
2022/09/09 15:09:16;;;;;;;14.18;12.63;;;24.70;99.90;;;;;;10235330;28;20246;-78
2022/09/09 15:14:18;;;;;;;21.50;18.48;;;24.90;99.90;;;;;;9906726;28;10000560;-78
2022/09/09 15:19:26;;;;;;;22.05;18.38;;;25.00;99.90;;;;;;10215834;29;20265;-78
2022/09/09 15:24:29;;;;;;;22.13;19.85;;;25.00;99.90;;;;;;10231089;28;20293;-78
2022/09/09 15:29:32;;;;;;;20.10;17.92;;;25.00;99.90;;;;;;10244624;28;20734;-78
2022/09/09 15:34:35;;;;;;;9.10;8.07;;;24.70;99.90;;;;;;10245411;28;20234;-78
2022/09/09 15:39:37;;;;;;;10.27;9.23;;;24.50;99.90;;;;;;10229031;29;20257;-78
2022/09/09 15:44:42;;;;;;;11.80;6.28;;;23.60;99.90;;;;;;10246841;28;20237;-78
2022/09/09 15:49:44;;;;;;;3.80;1.83;;;23.60;99.90;;;;;;10228225;29;20242;-79
2022/09/09 15:54:47;;;;;;;20.52;18.10;;;22.90;99.90;;;;;;10243561;29;20292;-80
2022/09/09 15:59:49;;;;;;;3.42;2.35;;;22.90;99.90;;;;;;10228821;28;20313;-79
2022/09/09 16:04:52;;;;;;;25.73;7.78;;;23.20;99.90;;;;;;10243598;28;20627;-79
2022/09/09 16:09:54;;;;;;;4.57;2.75;;;23.10;99.90;;;;;;10228057;28;20620;-79
2022/09/09 16:14:57;;;;;;;2.20;1.52;;;23.00;99.90;;;;;;10244278;28;20245;-78
2022/09/09 16:19:59;;;;;;;2.22;2.03;;;22.60;99.90;;;;;;10245631;28;20274;-78
2022/09/09 16:25:02;;;;;;;177.25;43.08;;;22.50;99.90;;;;;;10230775;29;20237;-78
2022/09/09 16:30:04;;;;;;;326.52;87.05;;;22.50;99.90;;;;;;10231990;29;20269;-78
2022/09/09 16:35:07;;;;;;;186.68;46.00;;;22.80;99.90;;;;;;10232292;28;20918;-78
2022/09/09 16:40:09;;;;;;;332.73;85.05;;;22.60;99.90;;;;;;10229585;29;20700;-78
2022/09/09 16:45:12;;;;;;;50.53;14.57;;;22.40;99.90;;;;;;10247434;28;20292;-78
2022/09/09 16:50:15;;;;;;;4.60;2.50;;;22.60;99.90;;;;;;10231728;29;20241;-78
2022/09/09 16:55:20;;;;;;;4.93;2.40;;;22.70;99.90;;;;;;10231048;29;20230;-78
2022/09/09 17:00:23;;;;;;;4.22;2.05;;;22.40;99.90;;;;;;10230049;29;20265;-78
2022/09/09 17:05:25;;;;;;;7.03;2.40;;;22.10;99.90;;;;;;10246933;28;20234;-78
2022/09/09 17:10:27;;;;;;;10.90;2.83;;;22.10;99.90;;;;;;10247424;29;20238;-78
2022/09/09 17:15:30;;;;;;;8.60;2.60;;;22.10;99.90;;;;;;10229222;28;20245;-78
2022/09/09 17:20:36;;;;;;;7.30;2.88;;;21.90;99.90;;;;;;10246667;29;20328;-78
2022/09/09 17:25:56;;;;;;;4.93;3.10;;;;;;;;;;10214711;29;20273;-78
2022/09/09 17:31:02;;;;;;;8.38;3.15;;;20.40;99.90;;;;;;10227975;29;20237;-78
2022/09/09 17:36:22;;;;;;;10.27;3.40;;;20.70;99.90;;;;;;10229363;29;20281;-78
2022/09/09 17:41:27;;;;;;;7.85;4.13;;;21.70;99.90;;;;;;10229125;29;20253;-79
2022/09/09 17:46:34;;;;;;;13.68;4.78;;;22.10;99.90;;;;;;10229519;29;20238;-79
2022/09/09 17:51:38;;;;;;;9.25;4.57;;;22.30;99.90;;;;;;9882555;28;10000101;-79
2022/09/09 17:56:41;;;;;;;5.65;5.00;;;22.50;99.90;;;;;;10213208;29;20684;-80
2022/09/09 18:01:46;;;;;;;12.07;5.75;;;22.40;99.90;;;;;;10249390;29;20639;-79
2022/09/09 18:06:51;;;;;;;7.22;5.97;;;22.50;99.90;;;;;;10250573;29;20234;-79
2022/09/09 18:11:56;;;;;;;12.93;6.80;;;22.50;99.90;;;;;;10248081;28;20245;-81
2022/09/09 18:17:00;;;;;;;8.93;6.90;;;22.50;99.90;;;;;;10230381;28;20694;-80
2022/09/09 18:22:05;;;;;;;9.77;8.00;;;22.60;99.90;;;;;;10232346;29;20630;-80
2022/09/09 18:27:08;;;;;;;14.35;8.55;;;22.60;99.90;;;;;;10250621;29;20218;-79
2022/09/09 18:32:10;;;;;;;9.43;8.50;;;22.60;99.90;;;;;;10230094;29;20331;-79
2022/09/09 18:37:13;;;;;;;13.80;8.57;;;22.50;99.90;;;;;;10229962;29;20234;-79
2022/09/09 18:42:16;;;;;;;9.13;8.23;;;22.50;99.90;;;;;;10232744;29;20270;-79
2022/09/09 18:47:18;;;;;;;10.32;9.23;;;22.50;99.90;;;;;;10250281;28;20234;-79
2022/09/09 18:52:21;;;;;;;11.35;9.88;;;22.50;99.90;;;;;;10239349;28;20242;-79
2022/09/09 18:57:23;;;;;;;13.60;9.57;;;22.50;99.90;;;;;;10249164;29;20246;-79
2022/09/09 19:02:26;;;;;;;12.35;9.95;;;22.50;99.90;;;;;;10248749;28;20253;-79
2022/09/09 19:07:28;;;;;;;10.63;9.52;;;22.50;99.90;;;;;;10247967;28;20261;-79
2022/09/09 19:12:31;;;;;;;9.43;8.63;;;22.50;99.90;;;;;;10250542;28;20242;-79
2022/09/09 19:17:35;;;;;;;10.32;9.27;;;22.40;99.90;;;;;;10232309;29;20265;-79
2022/09/09 19:22:37;;;;;;;10.65;9.63;;;22.30;99.90;;;;;;10247543;28;20290;-79
2022/09/09 19:27:41;;;;;;;10.77;9.77;;;22.40;99.90;;;;;;10248366;29;20288;-79
2022/09/09 19:32:44;;;;;;;11.85;9.95;;;22.40;99.90;;;;;;10246804;28;20391;-79
2022/09/09 19:37:57;;;;;;;11.15;10.05;;;22.30;99.90;;;;;;10247760;29;20242;-79
2022/09/09 19:43:00;;;;;;;10.63;9.63;;;22.40;99.90;;;;;;10231415;29;20254;-79
2022/09/09 19:48:05;;;;;;;11.40;10.27;;;22.30;99.90;;;;;;10229053;29;20297;-79
2022/09/09 19:53:07;;;;;;;10.32;9.43;;;22.40;99.90;;;;;;10255083;28;20273;-79
2022/09/09 19:58:10;;;;;;;11.38;10.35;;;22.40;99.90;;;;;;10248844;29;20237;-79
2022/09/09 20:03:12;;;;;;;11.48;10.35;;;22.40;99.90;;;;;;10230327;28;20312;-79
2022/09/09 20:08:21;;;;;;;12.48;10.88;;;22.40;99.90;;;;;;10230057;29;20762;-79
2022/09/09 20:13:23;;;;;;;11.25;10.02;;;22.40;99.90;;;;;;10246928;29;20225;-79
2022/09/09 20:18:29;;;;;;;10.90;9.80;;;22.40;99.90;;;;;;10245948;28;20313;-79
2022/09/09 20:23:33;;;;;;;10.88;9.88;;;22.30;99.90;;;;;;10246756;29;20320;-79
2022/09/09 20:28:37;;;;;;;10.23;9.23;;;22.30;99.90;;;;;;10244254;29;20305;-79
2022/09/09 20:33:41;;;;;;;10.55;9.65;;;22.30;99.90;;;;;;10245424;28;20672;-79
2022/09/09 20:38:49;;;;;;;11.20;10.10;;;22.30;99.90;;;;;;10237467;29;20238;-78
2022/09/09 20:43:53;;;;;;;10.70;9.70;;;22.20;99.90;;;;;;10236086;29;20245;-79
2022/09/09 20:48:57;;;;;;;11.30;10.20;;;22.30;99.90;;;;;;10247868;28;20226;-79
2022/09/09 20:54:24;;;;;;;11.52;10.45;;;22.30;99.90;;;;;;10248553;28;20253;-85
2022/09/09 20:59:29;;;;;;;9.65;8.27;;;22.30;99.90;;;;;;10230066;29;20704;-81
2022/09/09 21:04:31;;;;;;;12.63;10.80;;;16.60;99.90;;;;;;10247001;29;20272;-81
2022/09/09 21:09:34;;;;;;;10.38;9.38;;;18.70;99.90;;;;;;10212870;29;20684;-81
2022/09/09 21:14:36;;;;;;;10.98;9.98;;;21.00;99.90;;;;;;10243598;29;20749;-81
2022/09/09 21:19:39;;;;;;;10.82;9.73;;;21.70;99.90;;;;;;10247054;29;20678;-81
2022/09/09 21:24:42;;;;;;;10.77;9.75;;;21.90;99.90;;;;;;10230223;29;20661;-81
2022/09/09 21:29:46;;;;;;;10.30;9.18;;;22.00;99.90;;;;;;10206791;29;20631;-81
2022/09/09 21:34:48;;;;;;;11.68;9.95;;;22.00;99.90;;;;;;10233188;29;20225;-81
2022/09/09 21:39:51;;;;;;;10.82;9.73;;;22.10;99.90;;;;;;10230582;29;20214;-82
2022/09/09 21:44:54;;;;;;;10.45;9.45;;;22.10;99.90;;;;;;10230645;29;20250;-81
2022/09/09 21:49:56;;;;;;;10.50;9.50;;;22.10;99.90;;;;;;10229642;28;20242;-81
2022/09/09 21:54:59;;;;;;;10.95;9.95;;;22.10;99.90;;;;;;10248465;29;20261;-81
2022/09/09 22:00:05;;;;;;;10.88;9.88;;;22.10;99.90;;;;;;10229887;28;20269;-81
2022/09/09 22:05:13;;;;;;;10.45;9.55;;;22.10;99.90;;;;;;10247364;28;20300;-81
2022/09/09 22:10:18;;;;;;;11.05;9.95;;;22.10;99.90;;;;;;10246399;29;20285;-81
2022/09/09 22:15:20;;;;;;;11.55;10.55;;;22.10;99.90;;;;;;10206171;29;20215;-81
2022/09/09 22:20:23;;;;;;;10.50;9.50;;;22.10;99.90;;;;;;10208535;29;20318;-81
2022/09/09 22:25:27;;;;;;;11.57;10.60;;;22.10;99.90;;;;;;10219644;29;20257;-81
2022/09/09 22:30:29;;;;;;;11.20;10.20;;;22.20;99.90;;;;;;10246820;28;20234;-81
2022/09/09 22:35:43;;;;;;;11.93;10.75;;;22.10;99.90;;;;;;10229867;28;20265;-81
2022/09/09 22:40:46;;;;;;;11.82;10.73;;;22.10;99.90;;;;;;10230294;28;20257;-81
2022/09/09 22:45:49;;;;;;;11.00;10.05;;;22.10;99.90;;;;;;10234953;29;20210;-81
2022/09/09 22:50:52;;;;;;;11.23;10.18;;;22.10;99.90;;;;;;10254370;29;20234;-81
2022/09/09 22:56:00;;;;;;;11.15;10.18;;;22.10;99.90;;;;;;10234873;29;20237;-81
2022/09/09 23:01:10;;;;;;;11.82;10.73;;;22.10;99.90;;;;;;10236150;28;20277;-81
2022/09/09 23:06:20;;;;;;;11.88;10.77;;;22.10;99.90;;;;;;10235766;29;20234;-81
2022/09/09 23:11:30;;;;;;;11.00;10.00;;;22.10;99.90;;;;;;10254505;29;20233;-82
2022/09/09 23:16:37;;;;;;;11.00;10.00;;;22.10;99.90;;;;;;10239048;28;20290;-81
2022/09/09 23:21:40;;;;;;;11.43;10.48;;;22.10;99.90;;;;;;10225074;28;20286;-82
2022/09/09 23:26:44;;;;;;;11.07;9.98;;;22.10;99.90;;;;;;10252214;28;20619;-81
2022/09/09 23:31:46;;;;;;;11.57;10.27;;;21.80;99.90;;;;;;10251897;28;20612;-82
2022/09/09 23:36:49;;;;;;;11.23;10.23;;;22.00;99.90;;;;;;10252253;29;20369;-82
2022/09/09 23:41:51;;;;;;;11.70;10.70;;;22.00;99.90;;;;;;10251850;28;20277;-82
2022/09/09 23:46:54;;;;;;;11.38;10.38;;;22.00;99.90;;;;;;10229558;28;20693;-81
2022/09/09 23:51:56;;;;;;;11.48;10.38;;;22.00;99.90;;;;;;10251022;28;20293;-82
2022/09/09 23:56:59;;;;;;;11.88;10.70;;;22.00;99.90;;;;;;10209006;29;20238;-81
